^^
Meteo Knjazevac Station Historical Data
Daily Summary for April 21, 2021 Units:  Metric    English   Both
Daily Weekly Monthly Yearly Custom
  High: Low: Average:
Temperature: 18.7 °C 15.4 °C 17 °C
Dew Point: 17.7 °C 15.1 °C 16.4 °C
Humidity: 99% 94% 96%
Wind Speed: 4.8km/h 0km/h 1.6km/h
Wind Gust: 9.7km/h - -
Wind- - WSW
Pressure: 1015.5 hPa 1014.8 hPa -
Precipitation: 0 mm    
Historical Graphs
 
 
Tabular Data for April 21, 2021
Time Temperature Dew Point Pressure Wind Wind Speed Wind Gust Humidity Rainfall Rate (Hourly) solar Conditions
00:00 18.7 °C 17.7 °C 1015.5 hPa Calm   4.8 km/h 94% 0 mm 0 W/m2
00:10 18.6 °C 17.6 °C 1015.5 hPa West 1.6 km/h 3.2 km/h 94% 0 mm 0 W/m2
00:20 18.4 °C 17.4 °C 1015.5 hPa WSW 1.6 km/h 3.2 km/h 94% 0 mm 0 W/m2
00:30 18.3 °C 17.3 °C 1015.1 hPa Calm   3.2 km/h 94% 0 mm 0 W/m2
00:40 18.2 °C 17.2 °C 1015.5 hPa North 1.6 km/h 3.2 km/h 94% 0 mm 0 W/m2
00:50 18.1 °C 17.1 °C 1015.5 hPa Calm   4.8 km/h 94% 0 mm 0 W/m2
01:00 17.9 °C 17 °C 1015.1 hPa NE 1.6 km/h 4.8 km/h 94% 0 mm 0 W/m2
01:10 17.6 °C 16.6 °C 1015.1 hPa WSW 1.6 km/h 4.8 km/h 94% 0 mm 0 W/m2
01:20 17.4 °C 16.6 °C 1015.1 hPa SW 4.8 km/h 6.4 km/h 95% 0 mm 0 W/m2
01:30 17.2 °C 16.4 °C 1015.1 hPa West 3.2 km/h 4.8 km/h 95% 0 mm 0 W/m2
01:40 17.1 °C 16.4 °C 1014.8 hPa NNW 1.6 km/h 9.7 km/h 96% 0 mm 0 W/m2
01:50 17.1 °C 16.4 °C 1014.8 hPa West 1.6 km/h 4.8 km/h 96% 0 mm 0 W/m2
02:00 16.9 °C 16.3 °C 1014.8 hPa Calm   3.2 km/h 96% 0 mm 0 W/m2
02:10 16.8 °C 16.2 °C 1014.8 hPa WNW 1.6 km/h 4.8 km/h 96% 0 mm 0 W/m2
02:20 16.5 °C 15.8 °C 1015.1 hPa WSW 3.2 km/h 8 km/h 96% 0 mm 0 W/m2
02:30 16.3 °C 16 °C 1014.8 hPa West 3.2 km/h 4.8 km/h 98% 0 mm 0 W/m2
02:40 16.3 °C 16 °C 1014.8 hPa WSW 1.6 km/h 4.8 km/h 98% 0 mm 0 W/m2
02:50 16.1 °C 15.8 °C 1014.8 hPa Calm   3.2 km/h 98% 0 mm 0 W/m2
03:00 16 °C 15.7 °C 1014.8 hPa Calm   3.2 km/h 98% 0 mm 0 W/m2
03:10 15.9 °C 15.6 °C 1014.8 hPa WNW 3.2 km/h 4.8 km/h 98% 0 mm 0 W/m2
03:20 15.9 °C 15.7 °C 1014.8 hPa NNW 1.6 km/h 4.8 km/h 99% 0 mm 0 W/m2
03:30 15.8 °C 15.5 °C 1014.8 hPa NW 1.6 km/h 4.8 km/h 98% 0 mm 0 W/m2
03:40 15.7 °C 15.3 °C 1014.8 hPa WNW 1.6 km/h 4.8 km/h 98% 0 mm 0 W/m2
03:50 15.4 °C 15.1 °C 1014.8 hPa SW 3.2 km/h 4.8 km/h 98% 0 mm 0 W/m2
Knjazevac, Serbia
Compliments of Weather Underground - 2 mb